Аэропорт: Алматы. Алма-Ата

ICAO: UAAA

METAR:
2020-06-02 07:30:00
UAAA 020730Z 23005MPS 190V250 9999 SCT050CB BKN100 30/10 Q1010 R23L/CLRD65 NOSIG
METAR:
2020-06-02 05:00:00
TAF UAAA 020500Z 0206/0306 28003G08MPS 9999 SCT050CB BKN100 TX33/0209Z TN20/0301Z TEMPO 0206/0214 24003G12MPS -TSRA BKN020CB BKN100 PROB40 TEMPO 0214/0218 TS TEMPO 0218/0224 18003MPS